Time;durP1;ratioP1;P1;durP2;ratioP2;P2;SDS_P1;SDS_P2;PMS_P1;PMS_P2;Temp;Humidity;BMP_temperature;BMP_pressure;BME280_temperature;BME280_humidity;BME280_pressure;Samples;Min_cycle;Max_cycle;Signal;HPM_P1;HPM_P2
2021/12/16 00:08:35;;;;;;;39.10;28.17;;;7.40;99.90;;;;;;5086856;28;20052;-54
2021/12/16 00:33:09;;;;;;;40.67;28.20;;;7.70;99.90;;;;;;5089919;28;20052;-59
2021/12/16 00:35:33;;;;;;;39.13;27.75;;;7.70;99.90;;;;;;5089038;28;20105;-59
2021/12/16 00:37:59;;;;;;;42.38;29.17;;;7.70;99.90;;;;;;5087850;28;20147;-59
2021/12/16 00:40:25;;;;;;;38.03;29.00;;;7.70;99.90;;;;;;5079999;28;20449;-45
2021/12/16 00:42:56;;;;;;;39.17;28.02;;;7.60;99.90;;;;;;5079707;28;20051;-59
2021/12/16 00:45:37;;;;;;;44.95;28.42;;;7.70;99.90;;;;;;5086808;28;20853;-47
2021/12/16 00:48:23;;;;;;;44.65;29.45;;;7.60;99.90;;;;;;5086367;28;20055;-47
2021/12/16 00:56:10;;;;;;;42.42;30.40;;;7.60;99.90;;;;;;5076537;28;20569;-59
2021/12/16 00:58:46;;;;;;;45.25;32.35;;;7.60;99.90;;;;;;5073101;28;20052;-59
2021/12/16 01:50:20;;;;;;;58.33;33.30;;;7.60;99.90;;;;;;5076924;28;20059;-60
2021/12/16 01:55:36;;;;;;;50.15;32.72;;;7.60;99.90;;;;;;5073927;28;20040;-48
2021/12/16 01:58:19;;;;;;;49.65;32.25;;;7.70;99.90;;;;;;5089506;28;20044;-44
2021/12/16 02:01:52;;;;;;;55.58;33.30;;;7.60;99.90;;;;;;5088757;28;20055;-47
2021/12/16 02:04:02;;;;;;;48.90;31.60;;;7.60;99.90;;;;;;5067121;28;20568;-59
2021/12/16 02:09:17;;;;;;;53.25;33.35;;;7.60;99.90;;;;;;5058728;28;20063;-59
2021/12/16 02:35:48;;;;;;;59.80;35.83;;;7.30;99.90;;;;;;5072851;28;20040;-59
2021/12/16 02:38:18;;;;;;;58.10;35.80;;;7.20;99.90;;;;;;5089318;28;20522;-59
2021/12/16 02:40:47;;;;;;;55.00;34.50;;;7.20;99.90;;;;;;5064736;28;20095;-59
2021/12/16 02:48:39;;;;;;;57.80;36.05;;;7.10;99.90;;;;;;5072958;28;20040;-46
2021/12/16 02:51:17;;;;;;;58.97;36.88;;;7.10;99.90;;;;;;5049541;28;20048;-45
2021/12/16 02:53:53;;;;;;;60.03;36.03;;;7.10;99.90;;;;;;5089673;28;20091;-45
2021/12/16 02:56:20;;;;;;;58.90;35.85;;;7.00;99.90;;;;;;5071781;28;20055;-46
2021/12/16 02:58:53;;;;;;;58.75;36.55;;;7.10;99.90;;;;;;5088980;28;20040;-43
2021/12/16 03:01:31;;;;;;;60.38;36.83;;;7.00;99.90;;;;;;5088722;28;20062;-45
2021/12/16 03:03:59;;;;;;;56.92;38.47;;;7.10;99.90;;;;;;5088501;28;20084;-46
2021/12/16 03:06:30;;;;;;;63.00;37.10;;;7.00;99.90;;;;;;5078380;28;20056;-60
2021/12/16 03:08:57;;;;;;;64.60;37.08;;;7.10;99.90;;;;;;5081456;28;20495;-59
2021/12/16 03:12:30;;;;;;;63.17;37.92;;;7.10;99.90;;;;;;5078291;28;20056;-59
2021/12/16 03:19:53;;;;;;;63.78;37.50;;;7.20;99.90;;;;;;5080297;28;20119;-59
2021/12/16 03:22:38;;;;;;;59.80;36.47;;;7.20;99.90;;;;;;5070146;28;20052;-48
2021/12/16 03:31:35;;;;;;;59.75;37.90;;;7.20;99.90;;;;;;5072478;28;20048;-44
2021/12/16 03:39:17;;;;;;;58.85;36.60;;;7.20;99.90;;;;;;5076953;28;20039;-59
2021/12/16 03:41:44;;;;;;;58.40;37.10;;;7.20;99.90;;;;;;5072346;28;20060;-59
2021/12/16 03:44:14;;;;;;;55.00;36.20;;;7.30;99.90;;;;;;5068360;28;20476;-60
2021/12/16 03:46:49;;;;;;;58.20;37.88;;;7.30;99.90;;;;;;5068022;28;20040;-59
2021/12/16 03:49:20;;;;;;;65.05;38.25;;;7.20;99.90;;;;;;5073371;28;20048;-43
2021/12/16 03:51:52;;;;;;;;;;;7.30;99.90;;;;;;5086110;28;20120;-59
2021/12/16 03:54:31;;;;;;;58.65;35.90;;;7.30;99.90;;;;;;5085344;28;20288;-59
2021/12/16 03:57:04;;;;;;;63.65;39.15;;;7.30;99.90;;;;;;5071138;28;20439;-59
2021/12/16 03:59:36;;;;;;;63.60;39.42;;;7.30;99.90;;;;;;5062734;28;20119;-59
2021/12/16 04:02:24;;;;;;;71.18;39.17;;;7.30;99.90;;;;;;5047143;28;20040;-48
2021/12/16 04:04:53;;;;;;;66.10;38.30;;;7.30;99.90;;;;;;5067955;28;20056;-60
2021/12/16 04:07:24;;;;;;;55.45;36.63;;;7.30;99.90;;;;;;5072473;28;20056;-60
2021/12/16 04:11:00;;;;;;;68.00;39.53;;;7.30;99.90;;;;;;5080420;28;20053;-59
2021/12/16 04:13:28;;;;;;;64.50;38.80;;;7.20;99.90;;;;;;5055150;28;20077;-60
2021/12/16 04:15:58;;;;;;;65.85;39.47;;;7.30;99.90;;;;;;5067495;28;20098;-59
2021/12/16 04:18:26;;;;;;;67.53;40.03;;;7.30;99.90;;;;;;5085181;28;20056;-45
2021/12/16 04:20:53;;;;;;;70.88;38.72;;;7.20;99.90;;;;;;5064606;28;20508;-44
2021/12/16 04:23:20;;;;;;;64.60;39.70;;;7.20;99.90;;;;;;5067125;28;20037;-59
2021/12/16 04:25:47;;;;;;;62.38;38.85;;;7.20;99.90;;;;;;5073997;28;20734;-60
2021/12/16 04:28:26;;;;;;;64.22;39.63;;;7.20;99.90;;;;;;5051590;28;20455;-45
2021/12/16 04:30:57;;;;;;;65.18;39.10;;;7.20;99.90;;;;;;5087683;28;20087;-47
2021/12/16 04:33:25;;;;;;;61.22;38.20;;;7.20;99.90;;;;;;5061061;28;20930;-44
2021/12/16 04:35:53;;;;;;;65.03;38.67;;;7.20;99.90;;;;;;5050406;28;20483;-59
2021/12/16 04:38:19;;;;;;;73.22;42.17;;;7.30;99.90;;;;;;5041712;28;20056;-59
2021/12/16 04:40:49;;;;;;;67.32;39.17;;;7.30;99.90;;;;;;5078130;28;20044;-48
2021/12/16 04:43:21;;;;;;;65.88;38.90;;;7.30;99.90;;;;;;5050095;28;20080;-44
2021/12/16 04:45:57;;;;;;;67.53;39.10;;;7.30;99.90;;;;;;5082755;28;20048;-46
2021/12/16 04:48:26;;;;;;;63.75;37.67;;;7.30;99.90;;;;;;5084890;28;20060;-44
2021/12/16 04:50:52;;;;;;;67.38;37.28;;;7.30;99.90;;;;;;5087682;28;20497;-45
2021/12/16 04:53:20;;;;;;;65.43;40.50;;;7.20;99.90;;;;;;5053481;28;20067;-45
2021/12/16 04:55:50;;;;;;;61.83;38.40;;;7.20;99.90;;;;;;5082808;28;20044;-60
2021/12/16 04:58:16;;;;;;;64.13;38.13;;;7.20;99.90;;;;;;5084107;28;20499;-49
2021/12/16 05:00:43;;;;;;;66.82;38.00;;;7.10;99.90;;;;;;5056203;28;20584;-47
2021/12/16 05:03:29;;;;;;;65.13;37.42;;;7.10;99.90;;;;;;5087733;28;20134;-47
2021/12/16 05:05:55;;;;;;;63.88;38.03;;;7.10;99.90;;;;;;5071377;28;20047;-48
2021/12/16 05:08:22;;;;;;;58.55;35.97;;;7.00;99.90;;;;;;5087817;28;20390;-46
2021/12/16 05:11:02;;;;;;;63.92;38.20;;;6.90;99.90;;;;;;5070110;28;20127;-60
2021/12/16 05:13:31;;;;;;;67.50;39.38;;;6.80;99.90;;;;;;5072637;28;20048;-60
2021/12/16 05:16:04;;;;;;;60.83;38.65;;;6.80;99.90;;;;;;5067122;28;20045;-45
2021/12/16 05:18:36;;;;;;;66.68;37.40;;;6.80;99.90;;;;;;5051181;28;20049;-59
2021/12/16 05:21:14;;;;;;;66.68;38.40;;;6.70;99.90;;;;;;5050946;28;20075;-49
2021/12/16 05:26:26;;;;;;;63.10;38.20;;;6.60;99.90;;;;;;5053290;28;20546;-60
2021/12/16 05:29:23;;;;;;;75.35;39.65;;;6.50;99.90;;;;;;5072366;28;20048;-60
2021/12/16 05:31:50;;;;;;;91.65;39.25;;;6.50;99.90;;;;;;5054060;28;20044;-59
2021/12/16 05:34:17;;;;;;;57.08;33.30;;;6.30;99.90;;;;;;5076216;28;20044;-60
2021/12/16 05:36:44;;;;;;;78.75;40.80;;;6.30;99.90;;;;;;5083336;28;20119;-47
2021/12/16 05:39:14;;;;;;;80.72;41.00;;;6.30;99.90;;;;;;5075076;28;20056;-46
2021/12/16 05:41:51;;;;;;;81.72;41.60;;;6.30;99.90;;;;;;5068770;28;20061;-59
2021/12/16 05:44:19;;;;;;;78.88;43.75;;;6.40;99.90;;;;;;5077811;28;20052;-60
2021/12/16 05:46:45;;;;;;;82.40;42.67;;;6.40;99.90;;;;;;5053687;28;20048;-60
2021/12/16 05:49:13;;;;;;;84.18;43.67;;;6.50;99.90;;;;;;5089982;28;20036;-60
2021/12/16 05:51:51;;;;;;;72.25;42.47;;;6.60;99.90;;;;;;5074073;28;20472;-60
2021/12/16 05:54:21;;;;;;;85.47;44.88;;;6.60;99.90;;;;;;5106388;28;20098;-45
2021/12/16 05:56:52;;;;;;;82.07;42.63;;;6.70;99.90;;;;;;5043703;28;20067;-45
2021/12/16 05:59:21;;;;;;;83.55;44.05;;;6.70;99.90;;;;;;5069238;28;20044;-60
2021/12/16 06:01:50;;;;;;;79.90;42.58;;;6.80;99.90;;;;;;5085146;28;20399;-59
2021/12/16 06:04:21;;;;;;;79.65;41.78;;;6.90;99.90;;;;;;5070678;28;20044;-60
2021/12/16 06:06:51;;;;;;;88.88;43.95;;;6.90;99.90;;;;;;5054329;28;20087;-50
2021/12/16 06:09:17;;;;;;;85.22;44.72;;;6.90;99.90;;;;;;5088841;28;20406;-49
2021/12/16 06:11:44;;;;;;;72.72;42.60;;;6.90;99.90;;;;;;5089696;28;20056;-59
2021/12/16 06:14:22;;;;;;;73.95;40.53;;;7.00;99.90;;;;;;5089940;28;20406;-60
2021/12/16 06:27:41;;;;;;;71.85;39.20;;;7.00;99.90;;;;;;5090778;28;20101;-47
2021/12/16 06:30:09;;;;;;;69.78;40.05;;;7.10;99.90;;;;;;5089788;28;20047;-50
2021/12/16 06:32:36;;;;;;;78.22;41.35;;;7.10;99.90;;;;;;5090804;28;20135;-60
2021/12/16 06:35:04;;;;;;;67.57;38.58;;;7.10;99.90;;;;;;5071910;28;20131;-59
2021/12/16 06:37:30;;;;;;;67.25;39.78;;;7.20;99.90;;;;;;5090893;28;20072;-60
2021/12/16 06:39:57;;;;;;;75.53;41.15;;;7.20;99.90;;;;;;5089267;28;20060;-59
2021/12/16 06:42:29;;;;;;;67.82;39.90;;;7.20;99.90;;;;;;5075770;28;20703;-59
2021/12/16 06:45:05;;;;;;;72.32;40.83;;;7.20;99.90;;;;;;5088866;28;20133;-59
2021/12/16 06:47:45;;;;;;;75.85;41.83;;;7.20;99.90;;;;;;5087321;28;20066;-59
2021/12/16 06:50:26;;;;;;;81.25;41.35;;;7.20;99.90;;;;;;5089852;28;20449;-59
2021/12/16 06:52:56;;;;;;;65.47;38.38;;;7.30;99.90;;;;;;5088913;28;20495;-58
2021/12/16 06:55:32;;;;;;;73.45;40.15;;;7.30;99.90;;;;;;5089996;28;20043;-59
2021/12/16 06:58:09;;;;;;;74.53;41.05;;;7.30;99.90;;;;;;5089007;28;20511;-47
2021/12/16 07:00:41;;;;;;;65.18;39.35;;;7.30;99.90;;;;;;5071335;28;20047;-59
2021/12/16 07:03:17;;;;;;;74.40;41.03;;;7.30;99.90;;;;;;5056098;28;20055;-59
2021/12/16 07:05:45;;;;;;;67.50;39.88;;;7.30;99.90;;;;;;5087680;28;20147;-58
2021/12/16 07:08:15;;;;;;;77.68;40.72;;;7.30;99.90;;;;;;5089554;28;20122;-59
2021/12/16 07:10:45;;;;;;;79.88;41.70;;;7.30;99.90;;;;;;5089505;28;20427;-59
2021/12/16 07:13:19;;;;;;;68.32;40.33;;;7.40;99.90;;;;;;5087277;28;20044;-60
2021/12/16 07:15:48;;;;;;;74.05;40.75;;;7.40;99.90;;;;;;5087796;28;20052;-59
2021/12/16 07:18:14;;;;;;;77.28;43.88;;;7.30;99.90;;;;;;5088802;28;20048;-59
2021/12/16 07:20:41;;;;;;;70.05;41.10;;;7.40;99.90;;;;;;5071603;28;20040;-60
2021/12/16 07:23:10;;;;;;;74.00;40.63;;;7.40;99.90;;;;;;5088549;28;20048;-59
2021/12/16 07:25:36;;;;;;;80.80;41.30;;;7.40;99.90;;;;;;5068759;28;20397;-45
2021/12/16 07:28:04;;;;;;;76.63;43.10;;;7.40;99.90;;;;;;5114441;27;20051;-47
2021/12/16 07:30:31;;;;;;;72.00;40.78;;;7.40;99.90;;;;;;5071707;28;20071;-44
2021/12/16 07:32:57;;;;;;;79.22;41.00;;;7.30;99.90;;;;;;5089777;28;20513;-49
2021/12/16 07:35:26;;;;;;;75.70;41.05;;;7.20;99.90;;;;;;5088370;28;20695;-50
2021/12/16 07:37:53;;;;;;;73.35;41.17;;;7.20;99.90;;;;;;5071990;28;20109;-50
2021/12/16 07:40:23;;;;;;;75.97;40.78;;;7.20;99.90;;;;;;5070848;28;20083;-48
2021/12/16 07:45:29;;;;;;;67.55;39.67;;;7.10;99.90;;;;;;5088130;28;20043;-46
2021/12/16 07:47:55;;;;;;;81.68;40.72;;;7.00;99.90;;;;;;5073127;28;21411;-46
2021/12/16 07:50:22;;;;;;;82.28;43.50;;;7.00;99.90;;;;;;5055397;28;20712;-59
2021/12/16 07:52:48;;;;;;;84.28;42.58;;;6.90;99.90;;;;;;5088438;28;20044;-46
2021/12/16 07:55:15;;;;;;;83.50;41.58;;;6.90;99.90;;;;;;5087983;28;20075;-45
2021/12/16 07:57:41;;;;;;;86.10;43.20;;;6.90;99.90;;;;;;5089393;28;20040;-48
2021/12/16 08:00:21;;;;;;;90.18;41.75;;;6.80;99.90;;;;;;5087877;28;20043;-48
2021/12/16 08:02:48;;;;;;;90.85;43.75;;;6.80;99.90;;;;;;5086799;28;20044;-59
2021/12/16 08:05:15;;;;;;;94.85;46.10;;;6.80;99.90;;;;;;5088313;28;20612;-60
2021/12/16 08:07:41;;;;;;;83.35;41.53;;;6.80;99.90;;;;;;5048671;28;20055;-46
2021/12/16 08:10:11;;;;;;;100.80;47.75;;;6.80;99.90;;;;;;5085465;28;20425;-49
2021/12/16 08:12:38;;;;;;;96.43;47.15;;;6.80;99.90;;;;;;5085166;28;20048;-59
2021/12/16 08:20:18;;;;;;;114.40;48.17;;;6.80;99.90;;;;;;5086780;28;20058;-46
2021/12/16 08:22:49;;;;;;;183.40;57.97;;;6.90;99.90;;;;;;5087193;28;20433;-46
2021/12/16 08:25:18;;;;;;;206.43;60.88;;;7.00;99.90;;;;;;5083664;28;20054;-59
2021/12/16 08:27:45;;;;;;;250.52;65.25;;;7.10;99.90;;;;;;5082173;28;20048;-60
2021/12/16 08:30:13;;;;;;;285.38;68.15;;;7.10;99.90;;;;;;5079326;28;20123;-59
2021/12/16 08:32:39;;;;;;;252.13;66.30;;;7.20;99.90;;;;;;5083034;28;20056;-59
2021/12/16 08:35:07;;;;;;;247.27;63.28;;;7.30;99.90;;;;;;5083517;28;20084;-62
2021/12/16 08:37:34;;;;;;;272.55;67.03;;;7.30;99.90;;;;;;5088107;28;20044;-61
2021/12/16 08:40:03;;;;;;;348.38;76.00;;;7.30;99.90;;;;;;5087311;28;20786;-62
2021/12/16 08:42:30;;;;;;;278.17;67.47;;;7.40;99.90;;;;;;5053786;28;20076;-62
2021/12/16 08:44:56;;;;;;;278.65;66.07;;;7.40;99.90;;;;;;5088220;28;20051;-62
2021/12/16 08:47:23;;;;;;;212.48;57.92;;;7.50;99.90;;;;;;5087314;28;20130;-62
2021/12/16 08:49:50;;;;;;;229.85;60.25;;;7.50;99.90;;;;;;5086936;28;20510;-62
2021/12/16 08:52:20;;;;;;;213.18;62.55;;;7.60;99.90;;;;;;5086359;28;20083;-62
2021/12/16 08:54:48;;;;;;;228.20;58.08;;;7.60;99.90;;;;;;5086589;28;20076;-62
2021/12/16 08:57:15;;;;;;;213.85;58.88;;;7.60;99.90;;;;;;5088965;28;20111;-62
2021/12/16 08:59:43;;;;;;;199.38;55.72;;;7.60;99.90;;;;;;5086890;28;20052;-62
2021/12/16 09:02:10;;;;;;;175.63;51.25;;;7.60;99.90;;;;;;5088038;28;20044;-62
2021/12/16 09:04:38;;;;;;;168.43;52.70;;;7.60;99.90;;;;;;5070327;28;20052;-62
2021/12/16 09:07:07;;;;;;;166.32;54.28;;;7.70;99.90;;;;;;5085506;28;20036;-62
2021/12/16 09:09:36;;;;;;;160.55;51.10;;;7.70;99.90;;;;;;5084934;28;20495;-62
2021/12/16 09:12:11;;;;;;;157.38;51.03;;;7.70;99.90;;;;;;5084116;28;20131;-62
2021/12/16 09:14:39;;;;;;;86.70;40.85;;;7.70;99.90;;;;;;5086868;28;20128;-61
2021/12/16 09:17:12;;;;;;;99.40;40.45;;;7.80;99.90;;;;;;5089495;28;20052;-62
2021/12/16 09:19:42;;;;;;;117.72;40.97;;;7.80;99.90;;;;;;5086932;28;20044;-61
2021/12/16 09:22:10;;;;;;;97.53;42.53;;;7.80;99.90;;;;;;5081949;28;20048;-61
2021/12/16 09:24:37;;;;;;;81.93;36.97;;;7.80;99.90;;;;;;5086926;28;20514;-62
2021/12/16 09:27:04;;;;;;;84.10;36.65;;;7.80;99.90;;;;;;5089467;28;20036;-62
2021/12/16 09:29:30;;;;;;;72.28;35.83;;;7.80;99.90;;;;;;5090293;28;20051;-61
2021/12/16 09:31:58;;;;;;;58.28;33.72;;;7.80;99.90;;;;;;5087804;28;20535;-62
2021/12/16 09:34:24;;;;;;;68.88;34.85;;;7.80;99.90;;;;;;5087325;28;20525;-61
2021/12/16 09:36:50;;;;;;;60.83;33.72;;;7.80;99.90;;;;;;5089776;28;20052;-62
2021/12/16 09:39:21;;;;;;;79.00;36.25;;;7.80;99.90;;;;;;5084541;28;20109;-62
2021/12/16 09:41:50;;;;;;;64.30;35.22;;;7.80;99.90;;;;;;5082403;28;20056;-62
2021/12/16 09:44:18;;;;;;;73.10;35.50;;;7.80;99.90;;;;;;5086524;28;20109;-62
2021/12/16 09:46:48;;;;;;;68.70;33.50;;;7.70;99.90;;;;;;5070342;28;20178;-61
2021/12/16 09:49:16;;;;;;;59.15;32.85;;;7.70;99.90;;;;;;5091075;28;20490;-63
2021/12/16 09:51:43;;;;;;;57.63;32.28;;;7.80;99.90;;;;;;5072894;28;20044;-61
2021/12/16 09:54:20;;;;;;;56.20;29.85;;;7.80;99.90;;;;;;5089599;28;20040;-61
2021/12/16 09:56:48;;;;;;;57.38;31.15;;;7.80;99.90;;;;;;5087036;28;20048;-62
2021/12/16 09:59:16;;;;;;;49.15;28.73;;;7.80;99.90;;;;;;5087004;28;20048;-65
2021/12/16 10:01:47;;;;;;;58.38;31.40;;;7.80;99.90;;;;;;5090857;28;20101;-45
2021/12/16 10:04:19;;;;;;;66.60;33.35;;;7.80;99.90;;;;;;5091243;28;20123;-45
2021/12/16 10:06:48;;;;;;;57.30;33.33;;;7.90;99.90;;;;;;5087680;28;20390;-51
2021/12/16 10:09:14;;;;;;;51.40;31.80;;;8.00;99.90;;;;;;5089459;28;20044;-49
2021/12/16 10:11:46;;;;;;;52.83;31.63;;;8.00;99.90;;;;;;5089768;28;20055;-48
2021/12/16 10:19:26;;;;;;;43.10;28.38;;;8.30;99.90;;;;;;5069988;28;20137;-44
2021/12/16 10:21:55;;;;;;;44.95;27.23;;;8.30;99.90;;;;;;5089674;28;20569;-47
2021/12/16 10:24:25;;;;;;;46.85;26.98;;;8.40;99.90;;;;;;5091119;28;20092;-61
2021/12/16 10:27:10;;;;;;;45.30;26.83;;;8.30;99.90;;;;;;5089070;28;20047;-59
2021/12/16 10:29:59;;;;;;;49.10;29.13;;;8.40;99.90;;;;;;5090174;28;20052;-43
2021/12/16 10:32:42;;;;;;;43.45;27.77;;;8.50;99.90;;;;;;5089604;28;20040;-59
2021/12/16 10:35:13;;;;;;;41.80;26.02;;;8.40;99.90;;;;;;5090973;28;20051;-46
2021/12/16 10:37:45;;;;;;;46.17;26.40;;;8.40;99.90;;;;;;5090166;28;20500;-43
2021/12/16 10:40:40;;;;;;;45.45;25.88;;;8.40;99.90;;;;;;5072397;28;20065;-47
2021/12/16 10:43:12;;;;;;;42.75;25.13;;;8.40;99.90;;;;;;5091117;28;20147;-47
2021/12/16 10:45:48;;;;;;;41.40;26.08;;;8.50;99.90;;;;;;5090886;28;20044;-44
2021/12/16 10:48:28;;;;;;;38.05;25.90;;;8.50;99.90;;;;;;5089110;28;20040;-45
2021/12/16 10:50:54;;;;;;;51.45;26.80;;;8.50;99.90;;;;;;5072477;28;20048;-44
2021/12/16 10:53:45;;;;;;;48.80;27.42;;;8.50;99.90;;;;;;5087773;28;20119;-60
2021/12/16 10:56:12;;;;;;;47.17;27.13;;;8.50;99.90;;;;;;5053071;28;20119;-45
2021/12/16 10:59:11;;;;;;;53.88;27.70;;;8.50;99.90;;;;;;5047485;28;20131;-45
2021/12/16 11:01:45;;;;;;;47.28;26.83;;;8.60;99.90;;;;;;5086230;28;20048;-45
2021/12/16 11:04:37;;;;;;;49.08;27.50;;;8.60;99.90;;;;;;5080303;28;20070;-60
2021/12/16 11:07:15;;;;;;;44.65;26.17;;;8.60;99.90;;;;;;5081806;28;20040;-45
2021/12/16 11:09:47;;;;;;;50.83;27.00;;;8.60;99.90;;;;;;5079575;28;20047;-43
2021/12/16 11:12:16;;;;;;;52.40;26.42;;;8.60;99.90;;;;;;5069619;28;20058;-43
2021/12/16 11:14:56;;;;;;;54.30;27.77;;;8.60;99.90;;;;;;5081981;28;20064;-43
2021/12/16 11:17:29;;;;;;;57.72;28.23;;;8.60;99.90;;;;;;5089928;28;20058;-59
2021/12/16 11:20:28;;;;;;;62.95;28.95;;;8.60;99.90;;;;;;5072518;28;20055;-59
2021/12/16 11:23:16;;;;;;;58.03;29.60;;;8.60;99.90;;;;;;5090253;28;20054;-59
2021/12/16 11:25:44;;;;;;;57.58;28.35;;;8.60;99.90;;;;;;5089265;28;20048;-59
2021/12/16 11:28:20;;;;;;;62.13;27.40;;;8.60;99.90;;;;;;5088216;28;20040;-59
2021/12/16 11:30:53;;;;;;;59.05;27.38;;;8.60;99.90;;;;;;5089691;28;20115;-59
2021/12/16 11:33:31;;;;;;;58.28;27.58;;;8.60;99.90;;;;;;5088326;28;20044;-60
2021/12/16 11:36:03;;;;;;;81.10;32.15;;;8.60;99.90;;;;;;5089383;28;20050;-59
2021/12/16 11:38:37;;;;;;;79.00;30.05;;;8.60;99.90;;;;;;5085688;28;20044;-44
2021/12/16 11:41:13;;;;;;;76.97;30.10;;;8.60;99.90;;;;;;5065454;28;20060;-43
2021/12/16 11:43:42;;;;;;;84.20;32.67;;;8.70;99.90;;;;;;5089654;28;20494;-43
2021/12/16 11:46:19;;;;;;;83.28;32.15;;;8.60;99.90;;;;;;5087594;28;20036;-47
2021/12/16 11:48:46;;;;;;;110.80;35.10;;;8.60;99.90;;;;;;5089001;28;20111;-58
2021/12/16 11:51:20;;;;;;;109.32;33.85;;;8.60;99.90;;;;;;5088932;28;20048;-43
2021/12/16 11:53:53;;;;;;;95.43;32.03;;;8.70;99.90;;;;;;5088094;28;20048;-45
2021/12/16 11:56:32;;;;;;;81.53;29.52;;;8.70;99.90;;;;;;5087546;28;20593;-44
2021/12/16 11:58:59;;;;;;;76.15;30.85;;;8.70;99.90;;;;;;5069924;28;20053;-42
2021/12/16 12:01:25;;;;;;;87.43;31.80;;;8.70;99.90;;;;;;5088348;28;20055;-59
2021/12/16 12:03:51;;;;;;;107.35;33.20;;;8.80;99.90;;;;;;5086029;28;20113;-45
2021/12/16 12:06:23;;;;;;;100.35;31.40;;;8.80;99.90;;;;;;5088954;28;20494;-43
2021/12/16 12:08:51;;;;;;;99.75;32.05;;;8.80;99.90;;;;;;5064463;28;20056;-45
2021/12/16 12:11:22;;;;;;;74.07;29.55;;;8.80;99.90;;;;;;5080938;28;20473;-42
2021/12/16 12:14:02;;;;;;;92.05;28.38;;;8.80;99.90;;;;;;5045841;28;20048;-43
2021/12/16 12:16:47;;;;;;;90.32;27.58;;;8.80;99.90;;;;;;5077568;28;20054;-55
2021/12/16 12:19:15;;;;;;;118.47;31.63;;;8.80;99.90;;;;;;5081289;28;20055;-59
2021/12/16 12:21:44;;;;;;;94.32;27.98;;;8.80;99.90;;;;;;5060376;28;20044;-59
2021/12/16 12:24:25;;;;;;;113.47;29.80;;;8.80;99.90;;;;;;5081496;28;20596;-60
2021/12/16 12:26:58;;;;;;;116.28;30.23;;;8.70;99.90;;;;;;5085011;28;20051;-44
2021/12/16 12:29:31;;;;;;;108.38;30.35;;;8.80;99.90;;;;;;5084402;28;20050;-42
2021/12/16 12:32:24;;;;;;;152.93;32.67;;;8.80;99.90;;;;;;5086380;28;20044;-43
2021/12/16 12:34:56;;;;;;;106.32;31.50;;;8.80;99.90;;;;;;5083956;28;20040;-42
2021/12/16 12:37:25;;;;;;;124.22;33.63;;;8.80;99.90;;;;;;5088855;28;20035;-59
2021/12/16 12:40:07;;;;;;;122.00;31.77;;;8.80;99.90;;;;;;5086954;28;20048;-60
2021/12/16 12:42:34;;;;;;;104.93;30.25;;;8.90;99.90;;;;;;5053540;28;20059;-59
2021/12/16 12:45:04;;;;;;;79.25;27.05;;;8.80;99.90;;;;;;5088550;28;20130;-60
2021/12/16 12:47:35;;;;;;;139.40;31.73;;;8.80;99.90;;;;;;5068809;28;20055;-59
2021/12/16 12:50:19;;;;;;;125.68;30.50;;;8.80;99.90;;;;;;5088749;28;20048;-44
2021/12/16 12:52:50;;;;;;;130.68;33.83;;;8.80;99.90;;;;;;5081968;28;20036;-43
2021/12/16 12:55:26;;;;;;;106.77;30.37;;;8.80;99.90;;;;;;5087758;28;20048;-42
2021/12/16 12:58:03;;;;;;;82.88;29.63;;;8.80;99.90;;;;;;5085841;28;20044;-42
2021/12/16 13:00:34;;;;;;;109.80;30.60;;;8.80;99.90;;;;;;5085177;28;20126;-59
2021/12/16 13:03:07;;;;;;;123.53;32.83;;;8.80;99.90;;;;;;5087375;28;20124;-59
2021/12/16 13:05:34;;;;;;;97.05;29.80;;;8.80;99.90;;;;;;5084917;28;20044;-42
2021/12/16 13:08:10;;;;;;;87.85;30.15;;;8.80;99.90;;;;;;5083686;28;20054;-59
2021/12/16 13:10:41;;;;;;;95.13;27.70;;;8.90;99.90;;;;;;5094823;28;20048;-47
2021/12/16 13:16:51;;;;;;;121.68;29.60;;;8.80;99.90;;;;;;5082795;28;20039;-59
2021/12/16 13:27:40;;;;;;;120.32;30.23;;;8.80;99.90;;;;;;5084137;28;20032;-44
2021/12/16 13:33:24;;;;;;;72.80;26.10;;;8.90;99.90;;;;;;5081923;28;20472;-59
2021/12/16 13:36:07;;;;;;;97.93;28.70;;;8.90;99.90;;;;;;5082551;28;20193;-44
2021/12/16 13:38:39;;;;;;;98.05;28.95;;;8.90;99.90;;;;;;5079316;28;20052;-42
2021/12/16 13:41:10;;;;;;;108.35;29.90;;;8.90;99.90;;;;;;5081632;28;20059;-43
2021/12/16 13:43:37;;;;;;;97.95;29.50;;;9.00;99.90;;;;;;5087702;28;20515;-59
2021/12/16 14:04:07;;;;;;;80.05;25.30;;;8.90;99.90;;;;;;5087047;28;20044;-43
2021/12/16 14:07:24;;;;;;;75.88;25.80;;;8.90;99.90;;;;;;5086009;28;20110;-42
2021/12/16 14:10:18;;;;;;;82.60;30.48;;;8.90;99.90;;;;;;5089190;28;20043;-59
2021/12/16 14:37:14;;;;;;;63.00;25.63;;;8.70;99.90;;;;;;5090619;28;20491;-60
2021/12/16 14:50:18;;;;;;;111.20;31.27;;;8.50;99.90;;;;;;5050543;28;20063;-43
2021/12/16 14:52:44;;;;;;;113.20;30.70;;;8.50;99.90;;;;;;5085637;28;20510;-45
2021/12/16 14:55:13;;;;;;;100.90;32.17;;;8.50;99.90;;;;;;5083144;28;20126;-44
2021/12/16 14:57:46;;;;;;;102.10;31.17;;;8.40;99.90;;;;;;5070998;28;20048;-59
2021/12/16 15:00:32;;;;;;;135.95;33.03;;;8.40;99.90;;;;;;5089569;28;20051;-59
2021/12/16 15:03:08;;;;;;;178.27;36.92;;;8.40;99.90;;;;;;5087999;28;20040;-59
2021/12/16 15:05:39;;;;;;;125.05;32.83;;;8.40;99.90;;;;;;5090388;28;20097;-59
2021/12/16 15:08:39;;;;;;;124.68;31.83;;;8.30;99.90;;;;;;5072072;28;20052;-59
2021/12/16 15:11:09;;;;;;;219.40;38.42;;;8.30;99.90;;;;;;5087813;28;20131;-43
2021/12/16 15:13:48;;;;;;;105.63;28.15;;;8.20;99.90;;;;;;5086670;28;20048;-42
2021/12/16 15:36:45;;;;;;;155.02;32.60;;;8.10;99.90;;;;;;5083089;28;20044;-59
2021/12/16 15:45:22;;;;;;;148.27;32.17;;;8.00;99.90;;;;;;5085997;28;20107;-42
2021/12/16 15:48:11;;;;;;;107.47;30.15;;;8.00;99.90;;;;;;5081485;28;20031;-44
2021/12/16 15:50:47;;;;;;;81.22;28.98;;;8.00;99.90;;;;;;5085361;28;20052;-43
2021/12/16 15:53:20;;;;;;;97.82;28.30;;;8.00;99.90;;;;;;5081797;28;20138;-46
2021/12/16 15:55:51;;;;;;;82.18;26.33;;;8.00;99.90;;;;;;5084669;28;20056;-42
2021/12/16 15:58:19;;;;;;;93.88;27.95;;;8.00;99.90;;;;;;5084604;28;20558;-44
2021/12/16 16:00:53;;;;;;;116.82;30.13;;;8.00;99.90;;;;;;5086918;28;20056;-43
2021/12/16 16:03:20;;;;;;;90.20;29.85;;;8.00;99.90;;;;;;5088566;28;20048;-43
2021/12/16 16:05:55;;;;;;;101.82;30.10;;;8.00;99.90;;;;;;5087207;28;20082;-42
2021/12/16 16:08:24;;;;;;;128.90;28.80;;;8.00;99.90;;;;;;5085063;28;20044;-42
2021/12/16 16:10:58;;;;;;;126.82;30.83;;;8.00;99.90;;;;;;5099034;28;20491;-42
2021/12/16 16:13:30;;;;;;;109.60;28.98;;;8.00;99.90;;;;;;5085869;28;20524;-43
2021/12/16 16:16:02;;;;;;;203.95;34.25;;;8.00;99.90;;;;;;5086629;28;20063;-42
2021/12/16 16:21:08;;;;;;;106.22;27.60;;;8.00;99.90;;;;;;5088716;28;20363;-44
2021/12/16 16:23:37;;;;;;;132.75;31.40;;;8.00;99.90;;;;;;5088923;28;20040;-44
2021/12/16 16:26:06;;;;;;;113.45;31.48;;;8.00;99.90;;;;;;5086667;28;20056;-42
2021/12/16 16:28:33;;;;;;;142.80;32.42;;;8.00;99.90;;;;;;5086111;28;20173;-44
2021/12/16 16:31:00;;;;;;;97.50;30.20;;;8.00;99.90;;;;;;5086110;28;20055;-43
2021/12/16 16:33:31;;;;;;;161.70;35.67;;;8.00;99.90;;;;;;5086829;28;20059;-46
2021/12/16 16:36:03;;;;;;;129.88;31.95;;;8.00;99.90;;;;;;5088024;28;20055;-45
2021/12/16 16:38:48;;;;;;;;;;;8.00;99.90;;;;;;5088757;28;20509;-43
2021/12/16 16:41:17;;;;;;;98.07;31.42;;;8.10;99.90;;;;;;5087752;28;19943;-44
2021/12/16 16:43:49;;;;;;;152.10;34.25;;;8.10;99.90;;;;;;5070478;28;20447;-44
2021/12/16 16:46:19;;;;;;;99.40;29.65;;;8.10;99.90;;;;;;5081122;28;20071;-43
2021/12/16 16:51:34;;;;;;;106.55;30.75;;;8.10;99.90;;;;;;5084547;28;20036;-41
2021/12/16 16:54:19;;;;;;;87.10;27.88;;;8.20;99.90;;;;;;5084665;28;20502;-46
2021/12/16 16:57:20;;;;;;;123.88;31.02;;;8.10;99.90;;;;;;5088249;28;20082;-43
2021/12/16 16:59:55;;;;;;;106.28;28.77;;;8.20;99.90;;;;;;5078705;28;20419;-43
2021/12/16 17:02:45;;;;;;;92.78;26.60;;;8.20;99.90;;;;;;5083615;28;20048;-42
2021/12/16 17:05:26;;;;;;;77.15;26.40;;;8.20;99.90;;;;;;5100622;28;20040;-42
2021/12/16 17:07:54;;;;;;;62.87;25.43;;;8.20;99.90;;;;;;5086931;28;20048;-43
2021/12/16 17:10:20;;;;;;;73.93;26.73;;;8.20;99.90;;;;;;5068468;28;20490;-44
2021/12/16 17:12:47;;;;;;;71.20;23.98;;;8.20;99.90;;;;;;5086714;28;20056;-44
2021/12/16 17:15:31;;;;;;;66.22;24.92;;;8.20;99.90;;;;;;5086920;28;20499;-59
2021/12/16 17:17:58;;;;;;;70.70;24.85;;;8.20;99.90;;;;;;5085996;28;20054;-59
2021/12/16 17:20:24;;;;;;;70.97;25.35;;;8.20;99.90;;;;;;5088033;28;20094;-59
2021/12/16 17:22:52;;;;;;;53.30;23.55;;;8.20;99.90;;;;;;5087984;28;20051;-59
2021/12/16 17:25:21;;;;;;;63.10;26.67;;;8.20;99.90;;;;;;5069950;28;20055;-59